Time;durP1;ratioP1;P1;durP2;ratioP2;P2;SDS_P1;SDS_P2;PMS_P1;PMS_P2;Temp;Humidity;BMP_temperature;BMP_pressure;BME280_temperature;BME280_humidity;BME280_pressure;Samples;Min_cycle;Max_cycle;Signal;HPM_P1;HPM_P2
2021/03/15 00:01:09;;;;;;;24.33;15.73;;;;;;;3.82;77.81;98935.91;5064701;28;20035;-56
2021/03/15 00:03:36;;;;;;;23.05;14.55;;;;;;;3.86;77.55;98942.69;5059322;28;20105;-56
2021/03/15 00:06:03;;;;;;;23.23;14.13;;;;;;;3.84;77.71;98934.16;5045192;28;20112;-56
2021/03/15 00:08:29;;;;;;;23.30;15.05;;;;;;;3.87;77.18;98931.56;5045302;28;20021;-56
2021/03/15 00:11:00;;;;;;;22.27;14.88;;;;;;;3.85;78.10;98930.75;5045188;28;20096;-55
2021/03/15 00:13:26;;;;;;;23.90;15.27;;;;;;;3.90;77.87;98943.53;5046872;28;20330;-56
2021/03/15 00:15:54;;;;;;;21.27;14.23;;;;;;;3.91;77.36;98925.56;5044764;28;20253;-57
2021/03/15 00:18:20;;;;;;;22.20;15.13;;;;;;;3.82;77.92;98928.22;5045661;28;20041;-56
2021/03/15 00:20:47;;;;;;;22.50;14.82;;;;;;;3.95;77.44;98931.53;5064411;28;20274;-56
2021/03/15 00:23:13;;;;;;;23.17;15.23;;;;;;;3.94;77.08;98924.72;5064105;28;20048;-56
2021/03/15 00:25:39;;;;;;;23.85;15.63;;;;;;;3.87;77.16;98925.63;5064019;28;20314;-56
2021/03/15 00:28:05;;;;;;;23.10;14.75;;;;;;;3.89;76.90;98936.69;5056274;28;20127;-56
2021/03/15 00:30:31;;;;;;;23.33;15.02;;;;;;;3.90;77.71;98929.00;5063810;28;20096;-56
2021/03/15 00:32:57;;;;;;;21.83;14.70;;;;;;;3.72;77.42;98916.31;5050500;28;20021;-56
2021/03/15 00:35:23;;;;;;;25.95;16.75;;;;;;;3.87;77.32;98930.75;5052377;28;20043;-56
2021/03/15 00:37:50;;;;;;;21.52;13.73;;;;;;;3.78;77.73;98929.09;5057381;28;20025;-55
2021/03/15 00:40:19;;;;;;;23.75;15.77;;;;;;;3.45;78.44;98869.56;5055800;28;20068;-56
2021/03/15 00:42:46;;;;;;;23.80;15.10;;;;;;;3.53;77.48;98870.34;5045474;28;20029;-56
2021/03/15 00:45:14;;;;;;;25.98;15.95;;;;;;;3.77;77.87;98924.81;5044512;28;20201;-56
2021/03/15 00:47:41;;;;;;;24.52;15.75;;;;;;;3.88;78.15;98924.75;5055788;28;20100;-56
2021/03/15 00:50:24;;;;;;;27.13;15.20;;;;;;;3.33;78.59;98854.25;5063815;28;20029;-55
2021/03/15 00:52:49;;;;;;;23.65;15.13;;;;;;;3.69;78.42;98919.75;5059387;28;20033;-54
2021/03/15 00:55:16;;;;;;;24.35;15.70;;;;;;;3.65;79.19;98919.75;5043539;28;20033;-56
2021/03/15 00:57:41;;;;;;;24.48;15.82;;;;;;;3.70;78.44;98916.31;5043147;28;20211;-55
2021/03/15 01:00:08;;;;;;;24.35;15.02;;;;;;;3.70;78.51;98908.63;5059156;28;20035;-55
2021/03/15 01:02:34;;;;;;;24.52;15.48;;;;;;;3.77;78.37;98914.56;5063218;28;20032;-55
2021/03/15 01:05:00;;;;;;;27.55;15.13;;;;;;;3.65;78.77;98912.09;5063476;28;20194;-56
2021/03/15 01:07:27;;;;;;;25.20;15.75;;;;;;;3.68;78.93;98912.94;5062772;28;20048;-55
2021/03/15 01:09:53;;;;;;;27.92;16.48;;;;;;;3.76;78.57;98910.31;5044077;28;20040;-54
2021/03/15 01:12:19;;;;;;;24.83;15.48;;;;;;;3.84;78.58;98910.28;5044110;28;20040;-55
2021/03/15 01:14:44;;;;;;;26.63;15.50;;;;;;;3.77;79.56;98904.34;5043809;28;20245;-54
2021/03/15 01:17:12;;;;;;;26.63;16.35;;;;;;;3.32;79.59;98858.53;5043680;28;20276;-55
2021/03/15 01:19:38;;;;;;;25.05;15.80;;;;;;;3.49;79.93;98889.13;5051317;28;20028;-55
2021/03/15 01:22:04;;;;;;;25.23;16.98;;;;;;;3.61;80.79;98908.72;5063211;28;20194;-54
2021/03/15 01:24:30;;;;;;;24.20;16.17;;;;;;;3.75;79.93;98913.75;5062868;28;20028;-54
2021/03/15 01:26:56;;;;;;;28.20;17.88;;;;;;;3.74;80.35;98912.03;5055138;28;20067;-54
2021/03/15 01:29:21;;;;;;;25.67;15.80;;;;;;;3.73;80.21;98907.78;5054301;28;20057;-55
2021/03/15 01:31:47;;;;;;;28.45;17.85;;;;;;;3.69;80.31;98914.63;5042463;28;20032;-54
2021/03/15 01:34:13;;;;;;;26.88;16.85;;;;;;;3.61;81.02;98914.66;5051903;28;20092;-56
2021/03/15 01:36:39;;;;;;;26.92;16.50;;;;;;;3.68;80.60;98912.94;5043266;28;20021;-55
2021/03/15 01:39:05;;;;;;;22.92;14.38;;;;;;;3.51;80.90;98902.78;5043552;28;20021;-55
2021/03/15 01:41:31;;;;;;;23.52;14.88;;;;;;;3.61;80.57;98909.53;5043411;28;20031;-55
2021/03/15 01:43:57;;;;;;;27.90;17.52;;;;;;;3.65;81.01;98912.09;5056451;28;20032;-56
2021/03/15 01:46:23;;;;;;;30.05;18.45;;;;;;;3.71;80.41;98904.38;5062400;28;20032;-55
2021/03/15 01:48:49;;;;;;;29.15;16.95;;;;;;;3.79;80.68;98915.41;5062596;28;20078;-55
2021/03/15 01:51:16;;;;;;;30.00;17.52;;;;;;;3.66;81.05;98914.63;5054671;28;20120;-55
2021/03/15 01:53:43;;;;;;;27.27;17.75;;;;;;;3.69;80.77;98914.63;5050879;28;20033;-55
2021/03/15 01:56:11;;;;;;;26.75;16.58;;;;;;;3.68;80.79;98923.16;5043281;28;20025;-55
2021/03/15 01:58:37;;;;;;;27.10;17.42;;;;;;;3.68;81.68;98910.38;5051047;28;20052;-54
2021/03/15 02:01:03;;;;;;;28.30;17.58;;;;;;;3.67;81.47;98906.09;5043041;28;20040;-55
2021/03/15 02:03:31;;;;;;;29.33;18.88;;;;;;;3.25;81.94;98903.78;5050257;28;20078;-55
2021/03/15 02:05:56;;;;;;;30.02;19.45;;;;;;;3.57;81.59;98897.63;5051240;28;20025;-58
2021/03/15 02:08:22;;;;;;;26.83;18.42;;;;;;;3.59;81.52;98893.38;5061433;28;20050;-55
2021/03/15 02:10:48;;;;;;;30.13;18.77;;;;;;;3.58;81.79;98894.22;5062312;28;20234;-55
2021/03/15 02:13:33;;;;;;;31.40;20.30;;;;;;;3.54;81.94;98905.31;5062245;28;20037;-55
2021/03/15 02:16:22;;;;;;;28.48;17.83;;;;;;;3.57;82.56;98894.22;5056316;28;20025;-55
2021/03/15 02:19:25;;;;;;;30.15;19.17;;;;;;;3.53;83.12;98900.22;5043216;28;20045;-55
2021/03/15 02:22:01;;;;;;;33.05;19.77;;;;;;;3.46;82.94;98901.94;5050404;28;20033;-55
2021/03/15 02:24:45;;;;;;;32.00;20.15;;;;;;;3.50;82.58;98905.34;5049919;28;20041;-55
2021/03/15 02:27:33;;;;;;;30.27;20.67;;;;;;;3.45;82.52;98897.72;5046699;28;20087;-55
2021/03/15 02:30:26;;;;;;;34.45;21.55;;;;;;;3.13;82.25;98837.31;5042207;28;20033;-54
2021/03/15 02:33:04;;;;;;;31.17;19.63;;;;;;;3.50;83.46;98902.81;5052335;28;20025;-54
2021/03/15 02:35:33;;;;;;;33.55;20.27;;;;;;;3.16;83.23;98842.41;5061174;28;20256;-54
2021/03/15 02:38:05;;;;;;;33.55;20.48;;;;;;;3.16;82.75;98842.41;5061969;28;20036;-54
2021/03/15 02:40:30;;;;;;;;;;;;;;;3.49;82.66;98901.09;5044173;28;20034;-54
2021/03/15 02:43:00;;;;;;;33.42;19.55;;;;;;;3.13;82.81;98842.41;5047838;28;19963;-54
2021/03/15 02:45:27;;;;;;;32.75;20.20;;;;;;;3.51;82.85;98895.09;5052721;28;20025;-54
2021/03/15 02:47:54;;;;;;;32.45;20.30;;;;;;;3.55;82.89;98906.16;5042437;28;20045;-56
2021/03/15 02:50:23;;;;;;;31.63;21.02;;;;;;;3.42;83.58;98895.16;5043095;28;20032;-55
2021/03/15 02:52:51;;;;;;;32.25;20.70;;;;;;;3.29;83.69;98879.00;5061908;28;20036;-56
2021/03/15 02:55:26;;;;;;;35.78;21.75;;;;;;;3.15;83.61;98844.97;5061448;28;20028;-56
2021/03/15 02:57:54;;;;;;;34.63;19.20;;;;;;;3.34;83.93;98891.78;5061837;28;20037;-55
2021/03/15 03:00:21;;;;;;;32.75;19.90;;;;;;;3.29;83.95;98896.91;5061549;28;20032;-55
2021/03/15 03:02:48;;;;;;;32.00;21.85;;;;;;;3.39;84.60;98890.03;5061804;28;20298;-54
2021/03/15 03:05:16;;;;;;;35.88;21.20;;;;;;;3.14;84.79;98889.34;5045572;28;20079;-54
2021/03/15 03:07:46;;;;;;;34.50;20.98;;;;;;;3.25;84.93;98908.03;5052249;28;20032;-55
2021/03/15 03:10:13;;;;;;;35.33;21.98;;;;;;;3.37;84.56;98881.53;5061741;28;20032;-55
2021/03/15 03:12:40;;;;;;;36.50;20.92;;;;;;;3.21;85.10;98891.84;5061296;28;20033;-55
2021/03/15 03:15:08;;;;;;;33.20;21.85;;;;;;;3.24;85.31;98898.66;5053687;28;20036;-54
2021/03/15 03:17:38;;;;;;;32.50;19.45;;;;;;;2.74;84.78;98831.53;5042680;28;20060;-55
2021/03/15 03:20:23;;;;;;;31.15;19.85;;;;;;;3.14;85.49;98879.09;5057377;28;20096;-54
2021/03/15 03:22:51;;;;;;;35.30;22.73;;;;;;;3.20;85.56;98887.59;5058747;28;20033;-54
2021/03/15 03:25:21;;;;;;;36.47;23.33;;;;;;;2.94;84.79;98829.72;5059021;28;20036;-54
2021/03/15 03:27:53;;;;;;;37.67;23.08;;;;;;;2.73;85.24;98809.38;5049866;28;20048;-54
2021/03/15 03:30:31;;;;;;;36.40;20.55;;;;;;;3.09;86.57;98913.22;5065008;28;20037;-56
2021/03/15 03:33:05;;;;;;;36.65;23.73;;;;;;;3.13;86.26;98897.84;5062410;28;20102;-56
2021/03/15 03:35:31;;;;;;;33.70;21.98;;;;;;;3.22;85.62;98892.69;5047271;28;20032;-54
2021/03/15 03:37:57;;;;;;;35.67;23.00;;;;;;;3.23;86.03;98886.72;5049701;28;20049;-54
2021/03/15 03:40:23;;;;;;;35.30;22.90;;;;;;;3.16;86.38;98892.72;5048017;28;20053;-55
2021/03/15 03:42:49;;;;;;;38.20;23.42;;;;;;;2.89;86.15;98846.81;5047094;28;20087;-54
2021/03/15 03:45:15;;;;;;;35.20;22.70;;;;;;;3.18;85.89;98891.00;5048978;28;20037;-55
2021/03/15 03:47:42;;;;;;;32.92;20.58;;;;;;;3.08;86.33;98892.78;5064925;28;20027;-54
2021/03/15 03:50:15;;;;;;;38.22;25.08;;;;;;;2.81;86.38;98819.53;5051106;28;20029;-54
2021/03/15 03:52:49;;;;;;;39.45;24.63;;;;;;;2.85;86.32;98840.00;5064603;28;20037;-54
2021/03/15 03:55:18;;;;;;;34.65;23.30;;;;;;;2.94;86.06;98826.31;5053237;28;20092;-54
2021/03/15 03:57:46;;;;;;;33.25;22.27;;;;;;;3.31;85.85;98886.66;5048941;28;20036;-53
2021/03/15 04:00:14;;;;;;;36.55;23.13;;;;;;;3.01;85.36;98822.88;5061432;28;20025;-54
2021/03/15 04:02:49;;;;;;;34.88;22.42;;;;;;;3.28;85.39;98877.31;5063094;28;20037;-55
2021/03/15 04:05:22;;;;;;;34.47;23.63;;;;;;;3.25;86.11;98878.19;5059952;28;20037;-54
2021/03/15 04:07:52;;;;;;;32.47;21.17;;;;;;;3.34;85.90;98902.03;5049999;28;20144;-54
2021/03/15 04:10:19;;;;;;;36.67;21.75;;;;;;;3.38;85.53;98881.53;5045083;28;20033;-55
2021/03/15 04:12:52;;;;;;;36.13;22.73;;;;;;;3.36;85.33;98875.56;5048384;28;20030;-55
2021/03/15 04:15:18;;;;;;;38.25;22.33;;;;;;;3.34;85.41;98877.28;5050878;28;20037;-56
2021/03/15 04:17:47;;;;;;;34.88;21.25;;;;;;;2.99;85.33;98816.91;5049112;28;20037;-56
2021/03/15 04:20:21;;;;;;;32.10;22.05;;;;;;;3.40;85.13;98889.19;5056328;28;20104;-57
2021/03/15 04:22:54;;;;;;;35.08;22.02;;;;;;;2.81;85.79;98811.88;5064307;28;20132;-59
2021/03/15 04:25:23;;;;;;;31.30;19.55;;;;;;;3.27;85.13;98884.13;5050060;28;20029;-58
2021/03/15 04:27:52;;;;;;;28.88;20.48;;;;;;;3.19;85.51;98883.34;5044719;28;20033;-55
2021/03/15 04:30:23;;;;;;;31.77;20.92;;;;;;;3.28;85.38;98890.97;5044058;28;20037;-58
2021/03/15 04:32:53;;;;;;;27.02;19.10;;;;;;;3.22;85.07;98875.66;5051761;28;20033;-59
2021/03/15 04:35:31;;;;;;;31.35;19.98;;;;;;;3.35;84.64;98893.47;5055475;28;20321;-58
2021/03/15 04:38:03;;;;;;;28.80;20.23;;;;;;;3.11;84.67;98849.28;5057889;28;20221;-58
2021/03/15 04:40:30;;;;;;;31.98;20.20;;;;;;;3.35;85.05;98878.13;5063785;28;20110;-58
2021/03/15 04:42:59;;;;;;;25.80;16.63;;;;;;;3.29;84.17;98884.13;5059703;28;20038;-58
2021/03/15 04:45:27;;;;;;;27.00;17.65;;;;;;;2.97;84.88;98836.53;5047640;28;20075;-58
2021/03/15 04:47:54;;;;;;;30.13;19.50;;;;;;;3.33;84.43;98879.84;5063655;28;20036;-57
2021/03/15 04:50:21;;;;;;;29.27;19.25;;;;;;;3.25;84.62;98862.84;5055794;28;20104;-57
2021/03/15 04:52:47;;;;;;;26.42;18.83;;;;;;;3.26;84.77;98879.03;5045013;28;20093;-57
2021/03/15 04:55:14;;;;;;;28.50;18.35;;;;;;;3.33;83.92;98869.63;5063067;28;20099;-56
2021/03/15 04:57:41;;;;;;;27.17;18.70;;;;;;;3.27;84.34;98868.78;5052243;28;20333;-56
2021/03/15 05:00:11;;;;;;;27.20;18.95;;;;;;;2.84;84.25;98819.56;5044259;28;20409;-57
2021/03/15 05:02:39;;;;;;;28.75;18.52;;;;;;;3.37;83.70;98877.25;5043267;28;20071;-57
2021/03/15 05:05:07;;;;;;;27.45;18.38;;;;;;;3.07;83.04;98822.84;5045725;28;20032;-57
2021/03/15 05:07:34;;;;;;;25.90;19.10;;;;;;;3.40;83.02;98878.97;5043073;28;20071;-56
2021/03/15 05:10:02;;;;;;;29.85;19.63;;;;;;;3.41;83.32;98890.91;5043136;28;20029;-58
2021/03/15 05:12:28;;;;;;;28.98;19.80;;;;;;;3.33;83.63;98888.38;5046989;28;20037;-58
2021/03/15 05:14:56;;;;;;;31.23;19.27;;;;;;;2.87;83.75;98835.72;5057086;28;20218;-58
2021/03/15 05:17:22;;;;;;;26.77;19.90;;;;;;;3.34;82.91;98890.06;5042948;28;20225;-56
2021/03/15 05:19:49;;;;;;;30.27;21.02;;;;;;;3.47;83.42;98887.47;5043868;28;20033;-57
2021/03/15 05:22:16;;;;;;;24.48;17.73;;;;;;;3.43;82.54;98878.94;5051548;28;20067;-57
2021/03/15 05:24:43;;;;;;;29.85;19.73;;;;;;;2.98;83.14;98815.22;5050856;28;20052;-58
2021/03/15 05:27:10;;;;;;;25.27;19.20;;;;;;;3.19;82.42;98826.19;5050829;28;20032;-58
2021/03/15 05:29:39;;;;;;;27.58;19.10;;;;;;;3.53;82.51;98895.94;5048436;28;20041;-56
2021/03/15 05:32:06;;;;;;;26.65;18.67;;;;;;;3.36;82.51;98874.72;5043390;28;20025;-57
2021/03/15 05:34:33;;;;;;;27.10;17.45;;;;;;;3.43;82.44;98882.38;5049413;28;20033;-56
2021/03/15 05:37:01;;;;;;;26.40;17.45;;;;;;;3.38;81.90;98880.69;5048888;28;20210;-56
2021/03/15 05:39:27;;;;;;;25.95;19.00;;;;;;;3.44;82.21;98878.94;5063004;28;20021;-57
2021/03/15 05:42:23;;;;;;;23.48;16.95;;;;;;;3.27;82.65;98881.56;5062558;28;20041;-58
2021/03/15 05:45:26;;;;;;;23.58;17.50;;;;;;;3.33;82.63;98885.81;5062489;28;20041;-56
2021/03/15 05:48:30;;;;;;;23.83;16.98;;;;;;;3.02;82.50;98849.28;5055941;28;20045;-56
2021/03/15 05:51:13;;;;;;;23.10;17.40;;;;;;;3.23;83.12;98887.56;5062636;28;20333;-55
2021/03/15 05:54:04;;;;;;;23.15;16.67;;;;;;;3.11;83.83;98892.75;5057460;28;20135;-55
2021/03/15 05:56:42;;;;;;;25.70;18.65;;;;;;;3.28;84.22;98892.69;5044696;28;20029;-55
2021/03/15 05:59:27;;;;;;;30.13;18.52;;;;;;;2.87;84.16;98834.88;5062161;28;20032;-56
2021/03/15 06:02:25;;;;;;;25.17;17.90;;;;;;;3.15;84.68;98896.13;5054294;28;20040;-55
2021/03/15 06:05:10;;;;;;;28.67;18.05;;;;;;;3.00;84.39;98894.50;5050822;28;20456;-56
2021/03/15 06:07:37;;;;;;;27.20;18.15;;;;;;;3.01;84.73;98899.59;5048290;28;20047;-55
2021/03/15 06:10:08;;;;;;;24.88;17.92;;;;;;;3.06;84.72;98897.03;5051202;28;20040;-55
2021/03/15 06:12:46;;;;;;;26.58;18.70;;;;;;;3.09;84.37;98897.88;5046634;28;20023;-56
2021/03/15 06:15:14;;;;;;;24.83;17.50;;;;;;;2.89;85.21;98905.63;5052718;28;20028;-56
2021/03/15 06:17:41;;;;;;;29.67;18.98;;;;;;;2.90;85.00;98886.84;5051030;28;20053;-55
2021/03/15 06:20:07;;;;;;;23.85;16.20;;;;;;;2.80;85.34;98904.78;5054496;28;20025;-55
2021/03/15 06:22:34;;;;;;;25.52;17.63;;;;;;;2.74;86.40;98900.56;5044943;28;20031;-56
2021/03/15 06:25:01;;;;;;;25.70;18.92;;;;;;;2.51;85.67;98835.00;5046063;28;20785;-56
2021/03/15 06:27:29;;;;;;;30.15;20.02;;;;;;;2.97;85.55;98899.63;5051092;28;20071;-56
2021/03/15 06:29:56;;;;;;;26.80;18.13;;;;;;;2.90;85.58;98897.06;5049902;28;20029;-55
2021/03/15 06:32:27;;;;;;;27.95;19.48;;;;;;;2.95;85.70;98902.19;5045670;28;20057;-56
2021/03/15 06:34:55;;;;;;;25.67;18.33;;;;;;;2.88;85.59;98898.81;5055980;28;20098;-55
2021/03/15 06:37:21;;;;;;;29.40;20.02;;;;;;;3.00;85.45;98903.00;5056423;28;20025;-56
2021/03/15 06:39:49;;;;;;;25.38;18.67;;;;;;;2.67;85.06;98853.69;5053575;28;20067;-55
2021/03/15 06:42:17;;;;;;;26.98;19.58;;;;;;;2.59;84.83;98861.41;5048218;28;20217;-56
2021/03/15 06:44:43;;;;;;;27.52;19.00;;;;;;;3.00;85.49;98917.53;5050229;28;20033;-55
2021/03/15 06:47:10;;;;;;;28.48;19.58;;;;;;;2.98;85.25;98908.97;5048758;28;20048;-56
2021/03/15 06:49:36;;;;;;;23.92;18.17;;;;;;;3.02;85.46;98920.91;5050921;28;20034;-55
2021/03/15 06:52:04;;;;;;;24.48;17.95;;;;;;;2.59;85.18;98863.09;5047139;28;20047;-56
2021/03/15 06:54:30;;;;;;;26.08;17.05;;;;;;;2.80;85.67;98925.25;5053256;28;20332;-56
2021/03/15 06:57:16;;;;;;;30.45;19.10;;;;;;;2.88;85.51;98929.47;5054943;28;20056;-55
2021/03/15 06:59:53;;;;;;;30.08;19.55;;;;;;;2.57;85.75;98875.88;5054560;28;20229;-57
2021/03/15 07:02:26;;;;;;;26.45;18.75;;;;;;;2.88;85.71;98929.47;5055311;28;20066;-56
2021/03/15 07:04:53;;;;;;;29.23;20.35;;;;;;;2.89;85.92;98941.44;5050916;28;20246;-54
2021/03/15 07:07:27;;;;;;;28.92;20.17;;;;;;;2.75;85.69;98930.34;5051177;28;20334;-56
2021/03/15 07:09:54;;;;;;;26.67;20.15;;;;;;;2.96;85.83;98947.34;5060449;28;20217;-56
2021/03/15 07:12:22;;;;;;;25.92;19.98;;;;;;;3.01;85.18;98942.25;5051311;28;20029;-56
2021/03/15 07:14:50;;;;;;;29.17;20.02;;;;;;;2.85;85.24;98949.94;5051149;28;20249;-57
2021/03/15 07:17:26;;;;;;;29.00;20.00;;;;;;;2.72;85.42;98951.69;5052179;28;20083;-57
2021/03/15 07:19:54;;;;;;;27.23;19.73;;;;;;;2.76;85.42;98970.41;5049464;28;20052;-55
2021/03/15 07:22:29;;;;;;;28.70;20.50;;;;;;;2.61;85.79;98953.41;5051969;28;20105;-56
2021/03/15 07:25:05;;;;;;;25.65;19.67;;;;;;;2.67;85.47;98955.94;5049484;28;20088;-55
2021/03/15 07:27:33;;;;;;;29.00;20.55;;;;;;;2.69;86.17;98961.88;5047479;28;20028;-56
2021/03/15 07:30:33;;;;;;;28.20;19.98;;;;;;;2.56;86.06;98957.66;5048206;28;20037;-56
2021/03/15 07:33:05;;;;;;;27.27;19.83;;;;;;;2.34;86.04;98905.72;5053210;28;20009;-57
2021/03/15 07:35:33;;;;;;;28.58;20.77;;;;;;;2.65;85.80;98951.69;5051184;28;20388;-56
2021/03/15 07:37:59;;;;;;;27.67;20.58;;;;;;;2.60;86.12;98946.56;5052548;28;20029;-57
2021/03/15 07:40:31;;;;;;;28.35;19.70;;;;;;;1.98;86.59;98895.53;5050604;28;20025;-57
2021/03/15 07:43:16;;;;;;;28.23;20.63;;;;;;;2.55;86.44;98956.81;5054016;28;20038;-56
2021/03/15 07:45:45;;;;;;;28.55;20.58;;;;;;;2.52;86.34;98953.41;5050040;28;20040;-56
2021/03/15 07:48:24;;;;;;;31.75;21.27;;;;;;;2.48;86.03;98924.44;5052208;28;20048;-56
2021/03/15 07:51:02;;;;;;;29.63;20.90;;;;;;;2.50;86.63;98967.91;5056920;28;20310;-56
2021/03/15 07:53:41;;;;;;;26.83;17.27;;;;;;;1.95;86.33;98894.66;5056491;28;20037;-56
2021/03/15 07:56:09;;;;;;;28.90;20.45;;;;;;;2.32;86.94;98940.63;5061955;28;20044;-56
2021/03/15 07:58:40;;;;;;;30.42;22.45;;;;;;;2.67;86.57;98960.22;5060996;28;20025;-57
2021/03/15 08:01:07;;;;;;;30.30;20.83;;;;;;;2.63;86.68;98961.91;5057195;28;20221;-60
2021/03/15 08:03:37;;;;;;;29.33;21.08;;;;;;;2.54;86.32;98954.25;5059634;28;20294;-56
2021/03/15 08:06:04;;;;;;;26.30;19.10;;;;;;;2.47;86.41;98952.56;5057981;28;20025;-56
2021/03/15 08:08:30;;;;;;;31.00;21.92;;;;;;;2.70;86.72;98966.16;5059221;28;20053;-56
2021/03/15 08:10:56;;;;;;;32.60;21.75;;;;;;;2.63;86.68;98963.63;5058685;28;20478;-57
2021/03/15 08:13:28;;;;;;;32.75;22.80;;;;;;;2.42;85.98;98909.09;5059397;28;20083;-56
2021/03/15 08:15:59;;;;;;;29.38;20.60;;;;;;;2.21;86.43;98904.88;5054648;28;20033;-56
2021/03/15 08:18:27;;;;;;;29.30;21.52;;;;;;;2.37;86.66;98936.38;5049787;28;20051;-56
2021/03/15 08:21:01;;;;;;;29.58;21.85;;;;;;;2.53;86.88;98971.28;5050135;28;20052;-56
2021/03/15 08:23:32;;;;;;;30.75;21.58;;;;;;;2.57;86.50;98954.25;5048364;28;20021;-56
2021/03/15 08:26:04;;;;;;;32.03;21.95;;;;;;;2.18;86.86;98910.84;5052382;28;20017;-57
2021/03/15 08:28:34;;;;;;;30.88;19.73;;;;;;;2.37;86.83;98973.00;5049546;28;20093;-56
2021/03/15 08:31:11;;;;;;;30.00;21.67;;;;;;;2.40;87.47;98992.59;5050058;28;20036;-56
2021/03/15 08:33:38;;;;;;;31.52;21.83;;;;;;;2.46;87.32;98967.03;5055051;28;20063;-56
2021/03/15 08:36:05;;;;;;;30.48;20.38;;;;;;;2.52;86.79;98966.16;5049121;28;20478;-57
2021/03/15 08:38:32;;;;;;;31.73;22.65;;;;;;;2.47;86.79;98989.19;5049858;28;20089;-56
2021/03/15 08:41:03;;;;;;;30.33;20.73;;;;;;;2.01;86.49;98887.00;5052414;28;20037;-57
2021/03/15 08:43:34;;;;;;;31.35;21.85;;;;;;;2.56;87.00;98996.84;5049927;28;20088;-57
2021/03/15 08:46:01;;;;;;;31.63;22.05;;;;;;;2.62;86.81;98975.53;5052991;28;20012;-57
2021/03/15 08:48:33;;;;;;;33.50;22.05;;;;;;;2.66;86.63;98978.94;5049547;28;20049;-57
2021/03/15 08:51:00;;;;;;;;;;;;;;;2.67;86.61;98978.09;5047823;28;20067;-57
2021/03/15 08:53:38;;;;;;;27.33;20.13;;;;;;;2.69;85.65;98977.22;5048667;28;19924;-56
2021/03/15 08:56:04;;;;;;;30.42;22.48;;;;;;;2.79;85.67;98980.63;5050499;28;20049;-57
2021/03/15 08:58:41;;;;;;;30.95;21.00;;;;;;;2.90;85.70;98975.50;5054819;28;20040;-57
2021/03/15 09:01:16;;;;;;;30.48;22.45;;;;;;;2.46;85.70;98907.41;5059990;28;20033;-56
2021/03/15 09:04:01;;;;;;;28.65;20.80;;;;;;;2.90;85.34;98983.19;5053338;28;20033;-55
2021/03/15 09:06:30;;;;;;;27.25;19.75;;;;;;;3.10;85.23;98985.69;5061553;28;20067;-57
2021/03/15 09:08:55;;;;;;;33.40;24.02;;;;;;;3.13;85.19;98987.41;5055846;28;20056;-56
2021/03/15 09:11:36;;;;;;;30.95;21.73;;;;;;;2.91;85.69;98990.00;5044134;28;20053;-56
2021/03/15 09:14:17;;;;;;;30.17;21.42;;;;;;;2.98;85.26;98991.69;5050752;28;20106;-56
2021/03/15 09:16:45;;;;;;;32.73;22.43;;;;;;;2.83;85.24;98981.50;5055054;28;20111;-56
2021/03/15 09:19:49;;;;;;;30.35;21.75;;;;;;;2.79;85.72;98993.41;5063123;28;20575;-56
2021/03/15 09:22:30;;;;;;;30.67;21.55;;;;;;;2.77;86.49;99000.25;5058872;28;20048;-56
2021/03/15 09:24:58;;;;;;;31.07;21.17;;;;;;;2.42;85.62;98924.44;5062897;28;20037;-56
2021/03/15 09:27:39;;;;;;;28.40;21.42;;;;;;;2.76;86.15;99003.66;5047661;28;20048;-56
2021/03/15 09:30:18;;;;;;;31.20;21.95;;;;;;;2.93;85.76;99006.19;5043186;28;20034;-57
2021/03/15 09:32:48;;;;;;;28.27;20.33;;;;;;;2.75;86.44;98999.38;5051009;28;20045;-56
2021/03/15 09:35:18;;;;;;;28.75;20.55;;;;;;;2.94;85.75;99007.91;5048253;28;20083;-56
2021/03/15 09:38:07;;;;;;;29.48;21.50;;;;;;;2.00;85.63;98877.66;5049042;28;20099;-56
2021/03/15 09:40:38;;;;;;;28.92;20.73;;;;;;;2.84;85.60;98973.81;5047951;28;20025;-56
2021/03/15 09:43:04;;;;;;;27.98;20.85;;;;;;;3.04;85.76;99006.19;5046515;28;20095;-56
2021/03/15 09:45:36;;;;;;;28.25;21.77;;;;;;;2.84;86.21;99001.94;5055723;28;20029;-56
2021/03/15 09:48:03;;;;;;;;;;;;;;;2.97;85.14;98995.09;5048820;28;20033;-57
2021/03/15 09:50:32;;;;;;;28.75;19.38;;;;;;;2.89;86.06;99000.25;5046653;28;20140;-55
2021/03/15 09:53:10;;;;;;;27.88;20.50;;;;;;;2.90;85.83;99001.91;5046711;28;20205;-56
2021/03/15 09:55:36;;;;;;;28.40;20.27;;;;;;;3.02;85.40;99010.44;5048451;28;20508;-56
2021/03/15 09:58:21;;;;;;;31.33;22.05;;;;;;;3.15;85.31;99004.44;5052670;28;20064;-55
2021/03/15 10:00:49;;;;;;;29.70;20.88;;;;;;;3.10;85.71;99006.16;5058225;28;20100;-56
2021/03/15 10:03:19;;;;;;;27.13;19.83;;;;;;;3.02;85.37;98972.06;5043013;28;20108;-56
2021/03/15 10:05:51;;;;;;;31.13;21.73;;;;;;;3.01;85.45;99022.38;5046416;28;20037;-55
2021/03/15 10:08:17;;;;;;;29.63;19.95;;;;;;;3.16;85.75;99011.25;5045646;28;20049;-57
2021/03/15 10:10:43;;;;;;;27.48;20.25;;;;;;;3.18;85.12;99009.56;5042836;28;20037;-56
2021/03/15 10:13:09;;;;;;;27.10;20.15;;;;;;;3.15;84.86;99006.13;5042688;28;20037;-55
2021/03/15 10:15:36;;;;;;;29.75;21.35;;;;;;;3.22;84.99;99018.94;5047309;28;20036;-56
2021/03/15 10:18:02;;;;;;;25.35;20.70;;;;;;;3.16;85.95;99011.25;5049126;28;20107;-57
2021/03/15 10:20:34;;;;;;;27.65;20.98;;;;;;;3.14;85.06;99007.84;5060632;28;20237;-56
2021/03/15 10:23:12;;;;;;;31.45;21.25;;;;;;;3.15;85.31;99019.78;5062166;28;20032;-57
2021/03/15 10:25:40;;;;;;;30.40;20.45;;;;;;;3.11;85.45;98972.06;5061909;28;20033;-56
2021/03/15 10:28:07;;;;;;;29.45;21.52;;;;;;;3.33;84.56;98987.31;5050866;28;20045;-57
2021/03/15 10:30:34;;;;;;;29.58;20.73;;;;;;;3.43;84.81;99010.34;5053321;28;20020;-58
2021/03/15 10:33:01;;;;;;;28.58;20.13;;;;;;;3.55;84.00;99009.44;5056065;28;20025;-57
2021/03/15 10:35:32;;;;;;;33.17;21.73;;;;;;;3.51;83.89;99012.00;5047532;28;20029;-57
2021/03/15 10:38:01;;;;;;;30.83;21.73;;;;;;;3.15;83.23;98948.16;5061783;28;20052;-57
2021/03/15 10:40:28;;;;;;;32.25;21.45;;;;;;;3.58;83.93;99006.84;5061891;28;20123;-57
2021/03/15 10:42:55;;;;;;;33.95;22.73;;;;;;;3.49;84.79;99001.75;5056822;28;20033;-57
2021/03/15 10:45:26;;;;;;;34.13;22.88;;;;;;;3.20;84.10;98951.53;5054020;28;20017;-57
2021/03/15 10:48:05;;;;;;;33.63;23.60;;;;;;;3.55;84.31;99006.00;5049758;28;20032;-56
2021/03/15 10:50:37;;;;;;;30.83;22.25;;;;;;;3.12;83.55;98943.03;5066459;28;20139;-57
2021/03/15 10:53:16;;;;;;;34.83;22.20;;;;;;;3.14;84.34;98961.81;5043460;28;20068;-56
2021/03/15 10:55:42;;;;;;;32.35;22.80;;;;;;;3.40;84.37;99017.16;5050803;28;20096;-57
2021/03/15 10:58:14;;;;;;;32.42;22.98;;;;;;;3.39;84.69;99033.38;5050003;28;20487;-57
2021/03/15 11:00:59;;;;;;;34.38;23.02;;;;;;;3.37;85.05;99024.84;5044347;28;20030;-58
2021/03/15 11:03:29;;;;;;;33.65;22.90;;;;;;;3.52;84.67;99037.59;5047907;28;20033;-57
2021/03/15 11:06:08;;;;;;;32.58;22.77;;;;;;;3.48;85.00;99024.81;5048567;28;20017;-56
2021/03/15 11:08:35;;;;;;;32.03;22.77;;;;;;;3.47;84.05;99026.53;5052565;28;20322;-56
2021/03/15 11:11:21;;;;;;;33.08;23.13;;;;;;;3.46;84.93;99019.69;5045357;28;20064;-57
2021/03/15 11:13:49;;;;;;;31.25;22.02;;;;;;;3.49;83.84;99026.50;5047800;28;20096;-57
2021/03/15 11:16:16;;;;;;;32.95;22.58;;;;;;;3.38;84.42;99016.31;5046993;28;20041;-56
2021/03/15 11:18:42;;;;;;;37.15;23.55;;;;;;;3.44;84.79;99014.56;5050136;28;20045;-55
2021/03/15 11:21:10;;;;;;;33.92;23.55;;;;;;;3.03;84.95;98959.25;5056608;28;20255;-57
2021/03/15 11:23:38;;;;;;;34.08;22.48;;;;;;;3.11;85.01;98960.09;5055528;28;20025;-56
2021/03/15 11:26:05;;;;;;;41.55;24.08;;;;;;;3.60;83.83;99024.75;5045983;28;20040;-56
2021/03/15 11:28:38;;;;;;;33.15;22.73;;;;;;;3.25;84.65;98971.97;5047336;28;20045;-56
2021/03/15 11:31:05;;;;;;;33.90;22.67;;;;;;;3.48;84.53;99009.44;5046971;28;20037;-57
2021/03/15 11:33:31;;;;;;;31.30;22.48;;;;;;;3.53;84.37;99015.41;5043905;28;20029;-57
2021/03/15 11:35:59;;;;;;;37.35;24.60;;;;;;;3.58;83.89;98999.16;5050477;28;20057;-57
2021/03/15 11:38:26;;;;;;;35.13;24.95;;;;;;;3.34;84.23;98958.34;5049940;28;20062;-57
2021/03/15 11:40:52;;;;;;;34.13;23.55;;;;;;;3.77;83.79;99010.16;5063834;28;20029;-58
2021/03/15 11:43:22;;;;;;;33.60;23.58;;;;;;;3.74;83.91;99015.31;5056083;28;20315;-57